sensor_id;sensor_type;location;lat;lon;timestamp;pressure;altitude;pressure_sealevel;temperature;humidity
10093;BME280;5085;48.092;11.484;2023-03-15T00:01:32;94416.41;;;2.73;100.00
10093;BME280;5085;48.092;11.484;2023-03-15T00:04:01;94420.72;;;2.79;100.00
10093;BME280;5085;48.092;11.484;2023-03-15T00:06:32;94427.75;;;2.85;100.00
10093;BME280;5085;48.092;11.484;2023-03-15T00:09:00;94421.69;;;2.90;100.00
10093;BME280;5085;48.092;11.484;2023-03-15T00:11:27;94416.69;;;2.93;100.00
10093;BME280;5085;48.092;11.484;2023-03-15T00:13:56;94414.91;;;2.99;100.00
10093;BME280;5085;48.092;11.484;2023-03-15T00:16:23;94416.03;;;3.03;100.00
10093;BME280;5085;48.092;11.484;2023-03-15T00:18:55;94423.25;;;3.08;100.00
10093;BME280;5085;48.092;11.484;2023-03-15T00:21:22;94429.44;;;3.13;100.00
10093;BME280;5085;48.092;11.484;2023-03-15T00:23:48;94431.94;;;3.20;100.00
10093;BME280;5085;48.092;11.484;2023-03-15T00:26:14;94432.50;;;3.22;100.00
10093;BME280;5085;48.092;11.484;2023-03-15T00:28:40;94433.00;;;3.19;100.00
10093;BME280;5085;48.092;11.484;2023-03-15T00:31:13;94431.56;;;3.11;100.00
10093;BME280;5085;48.092;11.484;2023-03-15T00:33:39;94429.53;;;3.01;100.00
10093;BME280;5085;48.092;11.484;2023-03-15T00:36:07;94434.72;;;2.91;100.00
10093;BME280;5085;48.092;11.484;2023-03-15T00:38:34;94420.25;;;2.82;100.00
10093;BME280;5085;48.092;11.484;2023-03-15T00:41:10;94419.59;;;2.75;100.00
10093;BME280;5085;48.092;11.484;2023-03-15T00:43:37;94419.78;;;2.68;100.00
10093;BME280;5085;48.092;11.484;2023-03-15T00:46:04;94429.63;;;2.68;100.00
10093;BME280;5085;48.092;11.484;2023-03-15T00:48:30;94430.41;;;2.68;100.00
10093;BME280;5085;48.092;11.484;2023-03-15T00:51:08;94435.47;;;2.70;100.00
10093;BME280;5085;48.092;11.484;2023-03-15T00:53:38;94448.28;;;2.73;100.00
10093;BME280;5085;48.092;11.484;2023-03-15T00:56:10;94456.50;;;2.71;100.00
10093;BME280;5085;48.092;11.484;2023-03-15T00:58:37;94484.78;;;2.61;100.00
10093;BME280;5085;48.092;11.484;2023-03-15T01:01:14;94508.91;;;2.42;100.00
10093;BME280;5085;48.092;11.484;2023-03-15T01:03:41;94522.22;;;2.14;100.00
10093;BME280;5085;48.092;11.484;2023-03-15T01:06:09;94516.41;;;1.88;100.00
10093;BME280;5085;48.092;11.484;2023-03-15T01:08:39;94509.88;;;1.67;100.00
10093;BME280;5085;48.092;11.484;2023-03-15T01:11:09;94509.81;;;1.50;100.00
10093;BME280;5085;48.092;11.484;2023-03-15T01:13:39;94502.19;;;1.42;100.00
10093;BME280;5085;48.092;11.484;2023-03-15T01:16:06;94483.75;;;1.36;100.00
10093;BME280;5085;48.092;11.484;2023-03-15T01:18:33;94483.75;;;1.36;100.00
10093;BME280;5085;48.092;11.484;2023-03-15T01:20:59;94478.69;;;1.34;100.00
10093;BME280;5085;48.092;11.484;2023-03-15T01:23:25;94478.94;;;1.33;100.00
10093;BME280;5085;48.092;11.484;2023-03-15T01:25:51;94470.97;;;1.33;100.00
10093;BME280;5085;48.092;11.484;2023-03-15T01:28:18;94478.69;;;1.34;100.00
10093;BME280;5085;48.092;11.484;2023-03-15T01:30:51;94468.09;;;1.34;100.00
10093;BME280;5085;48.092;11.484;2023-03-15T01:33:19;94457.47;;;1.34;100.00
10093;BME280;5085;48.092;11.484;2023-03-15T01:35:45;94450.09;;;1.36;100.00
10093;BME280;5085;48.092;11.484;2023-03-15T01:38:12;94469.22;;;1.38;100.00
10093;BME280;5085;48.092;11.484;2023-03-15T01:40:42;94485.94;;;1.39;100.00
10093;BME280;5085;48.092;11.484;2023-03-15T01:43:17;94480.88;;;1.37;100.00
10093;BME280;5085;48.092;11.484;2023-03-15T01:48:43;94472.59;;;1.34;100.00
10093;BME280;5085;48.092;11.484;2023-03-15T01:53:42;94477.53;;;1.30;100.00
10093;BME280;5085;48.092;11.484;2023-03-15T01:56:11;94484.44;;;1.31;100.00
10093;BME280;5085;48.092;11.484;2023-03-15T01:58:38;94495.88;;;1.32;100.00
10093;BME280;5085;48.092;11.484;2023-03-15T02:01:08;94508.66;;;1.35;100.00
10093;BME280;5085;48.092;11.484;2023-03-15T02:03:41;94503.34;;;1.35;100.00
10093;BME280;5085;48.092;11.484;2023-03-15T02:06:17;94506.34;;;1.38;100.00
10093;BME280;5085;48.092;11.484;2023-03-15T02:08:52;94507.41;;;1.37;100.00
10093;BME280;5085;48.092;11.484;2023-03-15T02:11:24;94497.59;;;1.38;100.00
10093;BME280;5085;48.092;11.484;2023-03-15T02:13:52;94502.91;;;1.38;100.00
10093;BME280;5085;48.092;11.484;2023-03-15T02:16:19;94510.06;;;1.37;100.00
10093;BME280;5085;48.092;11.484;2023-03-15T02:18:52;94520.22;;;1.40;100.00
10093;BME280;5085;48.092;11.484;2023-03-15T02:24:13;94523.66;;;1.41;100.00
10093;BME280;5085;48.092;11.484;2023-03-15T02:26:47;94537.72;;;1.41;100.00
10093;BME280;5085;48.092;11.484;2023-03-15T02:29:15;94543.38;;;1.45;100.00
10093;BME280;5085;48.092;11.484;2023-03-15T02:31:41;94546.03;;;1.45;100.00
10093;BME280;5085;48.092;11.484;2023-03-15T02:34:07;94534.38;;;1.46;100.00
10093;BME280;5085;48.092;11.484;2023-03-15T02:36:34;94541.88;;;1.49;100.00
10093;BME280;5085;48.092;11.484;2023-03-15T02:39:01;94545.56;;;1.48;100.00
10093;BME280;5085;48.092;11.484;2023-03-15T02:41:41;94538.41;;;1.48;100.00
10093;BME280;5085;48.092;11.484;2023-03-15T02:44:28;94563.91;;;1.49;100.00
10093;BME280;5085;48.092;11.484;2023-03-15T02:47:00;94575.31;;;1.50;100.00
10093;BME280;5085;48.092;11.484;2023-03-15T02:49:33;94572.06;;;1.48;100.00
10093;BME280;5085;48.092;11.484;2023-03-15T02:52:00;94580.50;;;1.45;100.00
10093;BME280;5085;48.092;11.484;2023-03-15T02:54:26;94601.38;;;1.41;100.00
10093;BME280;5085;48.092;11.484;2023-03-15T02:56:53;94618.78;;;1.37;100.00
10093;BME280;5085;48.092;11.484;2023-03-15T02:59:19;94632.97;;;1.31;100.00
10093;BME280;5085;48.092;11.484;2023-03-15T03:01:45;94641.25;;;1.23;100.00
10093;BME280;5085;48.092;11.484;2023-03-15T03:04:11;94644.59;;;1.18;100.00
10093;BME280;5085;48.092;11.484;2023-03-15T03:06:38;94654.28;;;1.13;100.00
10093;BME280;5085;48.092;11.484;2023-03-15T03:09:05;94669.38;;;1.12;100.00
10093;BME280;5085;48.092;11.484;2023-03-15T03:11:31;94680.22;;;1.11;100.00
10093;BME280;5085;48.092;11.484;2023-03-15T03:13:57;94692.75;;;1.04;100.00
10093;BME280;5085;48.092;11.484;2023-03-15T03:16:23;94702.75;;;1.02;100.00
10093;BME280;5085;48.092;11.484;2023-03-15T03:18:50;94711.38;;;0.97;100.00
10093;BME280;5085;48.092;11.484;2023-03-15T03:21:17;94715.75;;;0.91;100.00
10093;BME280;5085;48.092;11.484;2023-03-15T03:23:43;94713.34;;;0.90;100.00
10093;BME280;5085;48.092;11.484;2023-03-15T03:26:17;94728.44;;;0.89;100.00
10093;BME280;5085;48.092;11.484;2023-03-15T03:28:46;94724.63;;;0.85;100.00
10093;BME280;5085;48.092;11.484;2023-03-15T03:31:21;94746.81;;;0.84;100.00
10093;BME280;5085;48.092;11.484;2023-03-15T03:33:48;94756.84;;;0.82;100.00
10093;BME280;5085;48.092;11.484;2023-03-15T03:36:15;94755.44;;;0.80;100.00
10093;BME280;5085;48.092;11.484;2023-03-15T03:38:42;94778.72;;;0.78;100.00
10093;BME280;5085;48.092;11.484;2023-03-15T03:41:10;94787.72;;;0.77;100.00
10093;BME280;5085;48.092;11.484;2023-03-15T03:43:37;94796.47;;;0.77;100.00
10093;BME280;5085;48.092;11.484;2023-03-15T03:46:04;94792.78;;;0.78;100.00
10093;BME280;5085;48.092;11.484;2023-03-15T03:48:31;94803.59;;;0.77;100.00
10093;BME280;5085;48.092;11.484;2023-03-15T03:50:58;94808.91;;;0.77;100.00
10093;BME280;5085;48.092;11.484;2023-03-15T03:53:24;94819.28;;;0.78;100.00
10093;BME280;5085;48.092;11.484;2023-03-15T03:55:50;94830.31;;;0.75;100.00
10093;BME280;5085;48.092;11.484;2023-03-15T03:58:21;94825.00;;;0.75;100.00
10093;BME280;5085;48.092;11.484;2023-03-15T04:00:57;94839.28;;;0.74;100.00
10093;BME280;5085;48.092;11.484;2023-03-15T04:03:25;94843.97;;;0.72;100.00
10093;BME280;5085;48.092;11.484;2023-03-15T04:06:02;94843.41;;;0.70;100.00
10093;BME280;5085;48.092;11.484;2023-03-15T04:08:35;94853.56;;;0.73;100.00
10093;BME280;5085;48.092;11.484;2023-03-15T04:11:04;94864.38;;;0.71;100.00
10093;BME280;5085;48.092;11.484;2023-03-15T04:13:33;94872.97;;;0.67;100.00
10093;BME280;5085;48.092;11.484;2023-03-15T04:16:00;94873.22;;;0.65;100.00
10093;BME280;5085;48.092;11.484;2023-03-15T04:18:35;94878.50;;;0.65;100.00
10093;BME280;5085;48.092;11.484;2023-03-15T04:21:01;94894.03;;;0.62;100.00
10093;BME280;5085;48.092;11.484;2023-03-15T04:23:27;94890.81;;;0.60;100.00
10093;BME280;5085;48.092;11.484;2023-03-15T04:26:14;94899.19;;;0.57;100.00
10093;BME280;5085;48.092;11.484;2023-03-15T04:29:05;94904.91;;;0.54;100.00
10093;BME280;5085;48.092;11.484;2023-03-15T04:31:31;94903.28;;;0.53;100.00
10093;BME280;5085;48.092;11.484;2023-03-15T04:34:37;94920.56;;;0.55;100.00
10093;BME280;5085;48.092;11.484;2023-03-15T04:37:14;94922.22;;;0.56;100.00
10093;BME280;5085;48.092;11.484;2023-03-15T04:39:59;94931.34;;;0.60;100.00
10093;BME280;5085;48.092;11.484;2023-03-15T04:42:37;94933.19;;;0.60;100.00
10093;BME280;5085;48.092;11.484;2023-03-15T04:45:16;94932.81;;;0.56;100.00
10093;BME280;5085;48.092;11.484;2023-03-15T04:47:54;94947.06;;;0.55;100.00
10093;BME280;5085;48.092;11.484;2023-03-15T04:50:50;94950.31;;;0.57;100.00
10093;BME280;5085;48.092;11.484;2023-03-15T04:53:36;94949.50;;;0.57;100.00
10093;BME280;5085;48.092;11.484;2023-03-15T04:56:23;94959.94;;;0.52;100.00
10093;BME280;5085;48.092;11.484;2023-03-15T04:59:04;94967.88;;;0.52;100.00
10093;BME280;5085;48.092;11.484;2023-03-15T05:02:04;94976.03;;;0.50;100.00
10093;BME280;5085;48.092;11.484;2023-03-15T05:04:40;94976.69;;;0.45;100.00
10093;BME280;5085;48.092;11.484;2023-03-15T05:07:19;94979.75;;;0.42;100.00
10093;BME280;5085;48.092;11.484;2023-03-15T05:10:08;94987.69;;;0.42;100.00
10093;BME280;5085;48.092;11.484;2023-03-15T05:12:50;94992.81;;;0.44;100.00
10093;BME280;5085;48.092;11.484;2023-03-15T05:15:33;94994.63;;;0.43;100.00
10093;BME280;5085;48.092;11.484;2023-03-15T05:18:23;95005.22;;;0.43;100.00
10093;BME280;5085;48.092;11.484;2023-03-15T05:21:12;95010.31;;;0.45;100.00
10093;BME280;5085;48.092;11.484;2023-03-15T05:23:54;95006.84;;;0.44;100.00
10093;BME280;5085;48.092;11.484;2023-03-15T05:26:38;95017.44;;;0.44;100.00
10093;BME280;5085;48.092;11.484;2023-03-15T05:29:22;95017.66;;;0.43;100.00
10093;BME280;5085;48.092;11.484;2023-03-15T05:32:08;95018.66;;;0.42;100.00
10093;BME280;5085;48.092;11.484;2023-03-15T05:35:12;95040.09;;;0.40;100.00
10093;BME280;5085;48.092;11.484;2023-03-15T05:37:57;95037.66;;;0.39;100.00
10093;BME280;5085;48.092;11.484;2023-03-15T05:40:42;95047.84;;;0.35;100.00
10093;BME280;5085;48.092;11.484;2023-03-15T05:43:27;95050.50;;;0.35;100.00
10093;BME280;5085;48.092;11.484;2023-03-15T05:46:21;95055.00;;;0.35;100.00
10093;BME280;5085;48.092;11.484;2023-03-15T05:49:10;95058.03;;;0.38;100.00
10093;BME280;5085;48.092;11.484;2023-03-15T05:51:59;95063.69;;;0.42;100.00
10093;BME280;5085;48.092;11.484;2023-03-15T05:54:43;95068.00;;;0.43;100.00
10093;BME280;5085;48.092;11.484;2023-03-15T05:57:25;95085.50;;;0.44;100.00
10093;BME280;5085;48.092;11.484;2023-03-15T05:59:57;95086.31;;;0.44;100.00
10093;BME280;5085;48.092;11.484;2023-03-15T06:02:56;95093.84;;;0.47;100.00
10093;BME280;5085;48.092;11.484;2023-03-15T06:05:34;95091.19;;;0.47;100.00
10093;BME280;5085;48.092;11.484;2023-03-15T06:08:02;95099.53;;;0.51;100.00
10093;BME280;5085;48.092;11.484;2023-03-15T06:10:28;95106.84;;;0.49;100.00
10093;BME280;5085;48.092;11.484;2023-03-15T06:12:56;95110.94;;;0.52;100.00
10093;BME280;5085;48.092;11.484;2023-03-15T06:15:23;95111.72;;;0.52;100.00
10093;BME280;5085;48.092;11.484;2023-03-15T06:17:51;95116.00;;;0.53;100.00
10093;BME280;5085;48.092;11.484;2023-03-15T06:20:17;95110.31;;;0.49;100.00
10093;BME280;5085;48.092;11.484;2023-03-15T06:22:43;95110.94;;;0.45;100.00
10093;BME280;5085;48.092;11.484;2023-03-15T06:25:21;95128.91;;;0.43;100.00
10093;BME280;5085;48.092;11.484;2023-03-15T06:27:48;95133.38;;;0.42;100.00
10093;BME280;5085;48.092;11.484;2023-03-15T06:30:14;95133.16;;;0.44;100.00
10093;BME280;5085;48.092;11.484;2023-03-15T06:32:40;95131.31;;;0.44;100.00
10093;BME280;5085;48.092;11.484;2023-03-15T06:35:06;95139.06;;;0.46;100.00
10093;BME280;5085;48.092;11.484;2023-03-15T06:37:33;95141.06;;;0.50;100.00
10093;BME280;5085;48.092;11.484;2023-03-15T06:40:07;95142.28;;;0.55;100.00
10093;BME280;5085;48.092;11.484;2023-03-15T06:42:35;95137.75;;;0.62;100.00
10093;BME280;5085;48.092;11.484;2023-03-15T06:45:03;95142.19;;;0.68;100.00
10093;BME280;5085;48.092;11.484;2023-03-15T06:47:31;95152.53;;;0.76;100.00
10093;BME280;5085;48.092;11.484;2023-03-15T06:50:03;95155.34;;;0.88;100.00
10093;BME280;5085;48.092;11.484;2023-03-15T06:52:30;95154.44;;;1.00;100.00
10093;BME280;5085;48.092;11.484;2023-03-15T06:54:56;95156.84;;;1.09;100.00
10093;BME280;5085;48.092;11.484;2023-03-15T06:57:24;95158.63;;;1.15;100.00
10093;BME280;5085;48.092;11.484;2023-03-15T06:59:50;95151.22;;;1.23;100.00
10093;BME280;5085;48.092;11.484;2023-03-15T07:02:19;95162.16;;;1.34;100.00
10093;BME280;5085;48.092;11.484;2023-03-15T07:04:45;95166.53;;;1.46;100.00
10093;BME280;5085;48.092;11.484;2023-03-15T07:07:11;95164.81;;;1.59;100.00
10093;BME280;5085;48.092;11.484;2023-03-15T07:09:38;95160.53;;;1.58;100.00
10093;BME280;5085;48.092;11.484;2023-03-15T07:12:05;95163.63;;;1.55;100.00
10093;BME280;5085;48.092;11.484;2023-03-15T07:14:32;95171.56;;;1.55;100.00
10093;BME280;5085;48.092;11.484;2023-03-15T07:16:58;95179.66;;;1.66;100.00
10093;BME280;5085;48.092;11.484;2023-03-15T07:19:27;95171.75;;;1.78;100.00
10093;BME280;5085;48.092;11.484;2023-03-15T07:21:53;95185.38;;;1.88;100.00
10093;BME280;5085;48.092;11.484;2023-03-15T07:24:19;95183.38;;;2.02;100.00
10093;BME280;5085;48.092;11.484;2023-03-15T07:26:45;95194.69;;;2.16;100.00
10093;BME280;5085;48.092;11.484;2023-03-15T07:29:11;95197.84;;;2.24;100.00
10093;BME280;5085;48.092;11.484;2023-03-15T07:31:37;95192.25;;;2.33;100.00
10093;BME280;5085;48.092;11.484;2023-03-15T07:34:03;95204.53;;;2.34;100.00
10093;BME280;5085;48.092;11.484;2023-03-15T07:36:29;95191.16;;;2.40;100.00
10093;BME280;5085;48.092;11.484;2023-03-15T07:38:57;95196.59;;;2.45;100.00
10093;BME280;5085;48.092;11.484;2023-03-15T07:41:23;95193.66;;;2.54;100.00
10093;BME280;5085;48.092;11.484;2023-03-15T07:43:56;95198.09;;;2.60;100.00
10093;BME280;5085;48.092;11.484;2023-03-15T07:46:22;95205.75;;;2.68;100.00
10093;BME280;5085;48.092;11.484;2023-03-15T07:48:48;95203.00;;;2.74;100.00
10093;BME280;5085;48.092;11.484;2023-03-15T07:51:15;95207.66;;;2.79;100.00
10093;BME280;5085;48.092;11.484;2023-03-15T07:53:41;95202.38;;;2.91;100.00
10093;BME280;5085;48.092;11.484;2023-03-15T07:56:07;95201.53;;;3.09;100.00
10093;BME280;5085;48.092;11.484;2023-03-15T07:58:39;95196.75;;;3.29;100.00
10093;BME280;5085;48.092;11.484;2023-03-15T08:01:09;95204.56;;;3.54;100.00
10093;BME280;5085;48.092;11.484;2023-03-15T08:03:35;95198.78;;;3.69;100.00
10093;BME280;5085;48.092;11.484;2023-03-15T08:06:01;95205.66;;;3.88;100.00
10093;BME280;5085;48.092;11.484;2023-03-15T08:08:27;95197.63;;;4.12;100.00
10093;BME280;5085;48.092;11.484;2023-03-15T08:10:53;95201.00;;;4.42;100.00
10093;BME280;5085;48.092;11.484;2023-03-15T08:13:20;95202.09;;;4.70;100.00
10093;BME280;5085;48.092;11.484;2023-03-15T08:15:46;95195.19;;;4.97;100.00
10093;BME280;5085;48.092;11.484;2023-03-15T08:18:13;95193.28;;;5.26;100.00
10093;BME280;5085;48.092;11.484;2023-03-15T08:20:39;95194.72;;;5.46;100.00
10093;BME280;5085;48.092;11.484;2023-03-15T08:23:05;95199.72;;;5.42;100.00
10093;BME280;5085;48.092;11.484;2023-03-15T08:25:32;95204.91;;;5.49;100.00
10093;BME280;5085;48.092;11.484;2023-03-15T08:27:59;95195.59;;;5.51;98.84
10093;BME280;5085;48.092;11.484;2023-03-15T08:30:25;95197.44;;;5.34;97.26
10093;BME280;5085;48.092;11.484;2023-03-15T08:32:51;95203.38;;;5.36;99.53
10093;BME280;5085;48.092;11.484;2023-03-15T08:35:19;95196.56;;;5.45;99.54
10093;BME280;5085;48.092;11.484;2023-03-15T08:37:46;95196.44;;;5.86;99.12
10093;BME280;5085;48.092;11.484;2023-03-15T08:40:16;95191.44;;;6.45;96.41
10093;BME280;5085;48.092;11.484;2023-03-15T08:42:48;95189.69;;;6.72;87.75
10093;BME280;5085;48.092;11.484;2023-03-15T08:45:14;95198.25;;;6.74;85.56
10093;BME280;5085;48.092;11.484;2023-03-15T08:47:40;95192.03;;;6.91;80.32
10093;BME280;5085;48.092;11.484;2023-03-15T08:50:08;95186.56;;;7.30;79.34
10093;BME280;5085;48.092;11.484;2023-03-15T08:52:36;95196.25;;;7.63;75.42
10093;BME280;5085;48.092;11.484;2023-03-15T08:55:02;95187.94;;;7.91;73.69
10093;BME280;5085;48.092;11.484;2023-03-15T08:57:30;95177.03;;;8.40;75.86
10093;BME280;5085;48.092;11.484;2023-03-15T08:59:58;95191.78;;;8.95;70.68
10093;BME280;5085;48.092;11.484;2023-03-15T09:02:24;95199.97;;;9.26;66.04
10093;BME280;5085;48.092;11.484;2023-03-15T09:04:50;95188.97;;;9.27;59.63
10093;BME280;5085;48.092;11.484;2023-03-15T09:07:16;95190.09;;;9.52;61.26
10093;BME280;5085;48.092;11.484;2023-03-15T09:09:42;95197.38;;;9.72;58.42
10093;BME280;5085;48.092;11.484;2023-03-15T09:12:16;95187.16;;;9.84;57.44
10093;BME280;5085;48.092;11.484;2023-03-15T09:14:42;95195.22;;;10.15;57.51
10093;BME280;5085;48.092;11.484;2023-03-15T09:17:09;95190.09;;;10.49;55.58
10093;BME280;5085;48.092;11.484;2023-03-15T09:19:35;95185.13;;;10.97;56.25
10093;BME280;5085;48.092;11.484;2023-03-15T09:22:01;95194.28;;;11.50;55.30
10093;BME280;5085;48.092;11.484;2023-03-15T09:24:27;95184.91;;;11.87;52.97
10093;BME280;5085;48.092;11.484;2023-03-15T09:26:53;95188.34;;;12.32;51.27
10093;BME280;5085;48.092;11.484;2023-03-15T09:29:20;95189.47;;;12.55;48.88
10093;BME280;5085;48.092;11.484;2023-03-15T09:31:46;95199.09;;;12.37;47.80
10093;BME280;5085;48.092;11.484;2023-03-15T09:34:12;95198.84;;;12.34;47.08
10093;BME280;5085;48.092;11.484;2023-03-15T09:36:38;95193.13;;;12.40;47.37
10093;BME280;5085;48.092;11.484;2023-03-15T09:39:04;95194.72;;;12.94;48.00
10093;BME280;5085;48.092;11.484;2023-03-15T09:41:44;95195.06;;;13.36;46.75
10093;BME280;5085;48.092;11.484;2023-03-15T09:47:07;95193.06;;;14.36;44.99
10093;BME280;5085;48.092;11.484;2023-03-15T09:49:56;95198.16;;;14.56;44.72
10093;BME280;5085;48.092;11.484;2023-03-15T09:52:53;95194.47;;;14.47;42.79
10093;BME280;5085;48.092;11.484;2023-03-15T09:55:27;95208.03;;;14.66;42.71
10093;BME280;5085;48.092;11.484;2023-03-15T09:57:57;95204.91;;;14.86;43.44
10093;BME280;5085;48.092;11.484;2023-03-15T10:03:00;95216.41;;;13.13;42.79
10093;BME280;5085;48.092;11.484;2023-03-15T10:05:34;95217.84;;;11.35;45.29
10093;BME280;5085;48.092;11.484;2023-03-15T10:08:00;95225.63;;;10.05;47.45
10093;BME280;5085;48.092;11.484;2023-03-15T10:10:35;95225.22;;;9.30;49.56
10093;BME280;5085;48.092;11.484;2023-03-15T10:13:16;95226.44;;;10.11;49.55
10093;BME280;5085;48.092;11.484;2023-03-15T10:18:45;95213.78;;;12.55;47.02
10093;BME280;5085;48.092;11.484;2023-03-15T10:24:20;95217.31;;;14.60;40.75
10093;BME280;5085;48.092;11.484;2023-03-15T10:26:49;95215.63;;;15.88;40.91
10093;BME280;5085;48.092;11.484;2023-03-15T10:29:19;95218.63;;;17.21;41.26
10093;BME280;5085;48.092;11.484;2023-03-15T10:31:45;95208.09;;;17.85;35.31
10093;BME280;5085;48.092;11.484;2023-03-15T10:34:13;95218.03;;;18.07;32.79
10093;BME280;5085;48.092;11.484;2023-03-15T10:36:50;95207.47;;;18.14;32.73
10093;BME280;5085;48.092;11.484;2023-03-15T10:39:21;95210.97;;;17.89;32.62
10093;BME280;5085;48.092;11.484;2023-03-15T10:41:48;95206.25;;;17.63;31.68
10093;BME280;5085;48.092;11.484;2023-03-15T10:44:25;95211.34;;;17.47;32.49
10093;BME280;5085;48.092;11.484;2023-03-15T10:47:05;95220.13;;;17.93;32.70
10093;BME280;5085;48.092;11.484;2023-03-15T10:49:39;95213.38;;;18.42;32.38
10093;BME280;5085;48.092;11.484;2023-03-15T10:52:26;95203.03;;;19.00;31.33
10093;BME280;5085;48.092;11.484;2023-03-15T10:54:53;95195.00;;;19.42;30.26
10093;BME280;5085;48.092;11.484;2023-03-15T10:57:21;95195.13;;;19.75;31.14
10093;BME280;5085;48.092;11.484;2023-03-15T10:59:57;95203.75;;;19.18;30.26
10093;BME280;5085;48.092;11.484;2023-03-15T11:02:24;95188.41;;;19.05;29.92
10093;BME280;5085;48.092;11.484;2023-03-15T11:05:01;95196.56;;;19.13;29.56
10093;BME280;5085;48.092;11.484;2023-03-15T11:07:28;95191.53;;;19.54;28.25
10093;BME280;5085;48.092;11.484;2023-03-15T11:09:59;95188.22;;;19.98;28.06
10093;BME280;5085;48.092;11.484;2023-03-15T11:12:30;95196.38;;;20.28;27.57
10093;BME280;5085;48.092;11.484;2023-03-15T11:15:02;95196.69;;;20.81;27.09
10093;BME280;5085;48.092;11.484;2023-03-15T11:17:35;95202.00;;;21.10;26.02
10093;BME280;5085;48.092;11.484;2023-03-15T11:20:21;95196.38;;;21.52;25.94
10093;BME280;5085;48.092;11.484;2023-03-15T11:22:52;95190.03;;;20.57;26.90
10093;BME280;5085;48.092;11.484;2023-03-15T11:25:19;95192.41;;;20.17;28.15
10093;BME280;5085;48.092;11.484;2023-03-15T11:27:46;95194.28;;;20.25;28.17
10093;BME280;5085;48.092;11.484;2023-03-15T11:30:22;95189.66;;;19.07;28.18
10093;BME280;5085;48.092;11.484;2023-03-15T11:32:50;95201.16;;;17.79;29.19
10093;BME280;5085;48.092;11.484;2023-03-15T11:35:21;95185.31;;;18.42;30.08
10093;BME280;5085;48.092;11.484;2023-03-15T11:37:58;95186.22;;;19.57;29.25
10093;BME280;5085;48.092;11.484;2023-03-15T11:40:40;95197.03;;;20.79;26.92
10093;BME280;5085;48.092;11.484;2023-03-15T11:43:20;95186.63;;;21.18;25.13
10093;BME280;5085;48.092;11.484;2023-03-15T11:48:43;95177.63;;;19.76;25.85
10093;BME280;5085;48.092;11.484;2023-03-15T11:51:12;95169.47;;;19.00;27.07
10093;BME280;5085;48.092;11.484;2023-03-15T11:53:44;95168.88;;;19.83;26.40
10093;BME280;5085;48.092;11.484;2023-03-15T11:56:21;95177.63;;;20.72;25.62
10093;BME280;5085;48.092;11.484;2023-03-15T12:01:36;95163.78;;;17.62;26.71
10093;BME280;5085;48.092;11.484;2023-03-15T12:07:04;95172.59;;;14.43;31.94
10093;BME280;5085;48.092;11.484;2023-03-15T12:12:02;95163.22;;;12.85;34.20
10093;BME280;5085;48.092;11.484;2023-03-15T12:14:31;95161.47;;;12.17;35.70
10093;BME280;5085;48.092;11.484;2023-03-15T12:22:49;95149.53;;;12.23;37.86
10093;BME280;5085;48.092;11.484;2023-03-15T12:25:28;95146.41;;;12.40;36.83
10093;BME280;5085;48.092;11.484;2023-03-15T12:27:56;95145.56;;;11.76;37.26
10093;BME280;5085;48.092;11.484;2023-03-15T12:30:29;95139.88;;;10.94;36.33
10093;BME280;5085;48.092;11.484;2023-03-15T12:33:00;95137.34;;;10.48;38.21
10093;BME280;5085;48.092;11.484;2023-03-15T12:35:35;95134.19;;;10.00;39.00
10093;BME280;5085;48.092;11.484;2023-03-15T12:38:14;95133.13;;;11.46;37.45
10093;BME280;5085;48.092;11.484;2023-03-15T12:40:51;95138.88;;;13.52;34.38
10093;BME280;5085;48.092;11.484;2023-03-15T12:43:38;95123.84;;;16.21;30.95
10093;BME280;5085;48.092;11.484;2023-03-15T12:46:05;95136.09;;;18.04;27.86
10093;BME280;5085;48.092;11.484;2023-03-15T12:48:33;95131.06;;;19.05;26.60
10093;BME280;5085;48.092;11.484;2023-03-15T12:51:02;95131.59;;;19.28;26.09
10093;BME280;5085;48.092;11.484;2023-03-15T12:53:33;95127.59;;;18.95;25.94
10093;BME280;5085;48.092;11.484;2023-03-15T12:59:11;95132.25;;;17.79;27.88
10093;BME280;5085;48.092;11.484;2023-03-15T13:01:39;95130.13;;;17.41;28.25
10093;BME280;5085;48.092;11.484;2023-03-15T13:04:08;95126.81;;;16.33;28.49
10093;BME280;5085;48.092;11.484;2023-03-15T13:06:52;95123.69;;;14.81;30.25
10093;BME280;5085;48.092;11.484;2023-03-15T13:12:16;95129.88;;;12.70;33.86
10093;BME280;5085;48.092;11.484;2023-03-15T13:15:18;95129.25;;;11.96;35.28
10093;BME280;5085;48.092;11.484;2023-03-15T13:17:56;95128.66;;;11.26;36.67
10093;BME280;5085;48.092;11.484;2023-03-15T13:23:14;95138.56;;;10.81;37.14
10093;BME280;5085;48.092;11.484;2023-03-15T13:28:22;95141.31;;;11.70;36.97
10093;BME280;5085;48.092;11.484;2023-03-15T13:30:51;95141.84;;;13.07;35.45
10093;BME280;5085;48.092;11.484;2023-03-15T13:33:26;95135.09;;;15.33;32.79
10093;BME280;5085;48.092;11.484;2023-03-15T13:40:54;95139.97;;;15.95;29.52
10093;BME280;5085;48.092;11.484;2023-03-15T13:43:24;95133.31;;;14.73;31.57
10093;BME280;5085;48.092;11.484;2023-03-15T13:45:50;95133.81;;;13.64;33.06
10093;BME280;5085;48.092;11.484;2023-03-15T13:48:16;95132.75;;;12.79;35.06
10093;BME280;5085;48.092;11.484;2023-03-15T13:50:47;95135.25;;;11.88;36.29
10093;BME280;5085;48.092;11.484;2023-03-15T13:53:23;95133.06;;;11.07;37.43
10093;BME280;5085;48.092;11.484;2023-03-15T13:55:52;95134.59;;;10.68;38.28
10093;BME280;5085;48.092;11.484;2023-03-15T13:58:21;95146.78;;;10.35;40.06
10093;BME280;5085;48.092;11.484;2023-03-15T14:00:55;95141.69;;;9.93;40.51
10093;BME280;5085;48.092;11.484;2023-03-15T14:03:21;95133.13;;;9.60;40.57
10093;BME280;5085;48.092;11.484;2023-03-15T14:05:50;95135.78;;;9.40;40.75
10093;BME280;5085;48.092;11.484;2023-03-15T14:08:29;95135.75;;;9.24;40.06
10093;BME280;5085;48.092;11.484;2023-03-15T14:10:59;95132.50;;;9.17;40.57
10093;BME280;5085;48.092;11.484;2023-03-15T14:13:46;95135.69;;;8.99;40.79
10093;BME280;5085;48.092;11.484;2023-03-15T14:16:15;95149.03;;;8.79;41.68